Time;durP1;ratioP1;P1;durP2;ratioP2;P2;SDS_P1;SDS_P2;PMS_P1;PMS_P2;Temp;Humidity;BMP_temperature;BMP_pressure;BME280_temperature;BME280_humidity;BME280_pressure;Samples;Min_cycle;Max_cycle;Signal;HPM_P1;HPM_P2
2023/07/22 00:00:58;;;;;;;3.93;2.73;;;;;;;;;;5092357;28;20256;-83
2023/07/22 00:03:26;;;;;;;2.23;1.90;;;;;;;;;;5093421;28;20259;-83
2023/07/22 00:06:05;;;;;;;2.77;1.67;;;;;;;;;;5092595;28;20246;-83
2023/07/22 00:08:34;;;;;;;2.77;2.17;;;;;;;;;;5092692;28;20198;-83
2023/07/22 00:11:04;;;;;;;5.97;3.33;;;;;;;;;;5093016;28;20205;-81
2023/07/22 00:13:33;;;;;;;2.60;1.83;;;;;;;;;;5092863;28;20207;-81
2023/07/22 00:16:03;;;;;;;7.00;4.33;;;;;;;;;;5092631;28;20203;-81
2023/07/22 00:18:33;;;;;;;3.60;2.80;;;;;;;;;;5092526;28;20246;-81
2023/07/22 00:21:01;;;;;;;1.17;1.07;;;;;;;;;;5092815;28;20202;-81
2023/07/22 00:23:30;;;;;;;1.70;1.53;;;;;;;;;;5093165;28;20201;-81
2023/07/22 00:25:59;;;;;;;2.27;1.57;;;;;;;;;;5092155;28;20214;-81
2023/07/22 00:28:28;;;;;;;2.70;2.23;;;;;;;;;;5092140;28;20230;-81
2023/07/22 00:30:58;;;;;;;2.17;2.03;;;;;;;;;;5092490;28;20201;-83
2023/07/22 00:33:27;;;;;;;3.80;0.57;;;;;;;;;;5092677;28;20197;-83
2023/07/22 00:35:55;;;;;;;3.43;3.23;;;;;;;;;;5092184;28;20205;-83
2023/07/22 00:38:24;;;;;;;3.30;1.23;;;;;;;;;;5092970;28;20215;-83
2023/07/22 00:40:53;;;;;;;1.33;1.30;;;;;;;;;;5093028;28;20205;-83
2023/07/22 00:43:22;;;;;;;1.33;1.33;;;;;;;;;;5092244;28;20200;-83
2023/07/22 00:45:51;;;;;;;1.17;1.07;;;;;;;;;;5092045;28;20221;-81
2023/07/22 00:48:21;;;;;;;2.47;1.87;;;;;;;;;;5091543;28;20205;-81
2023/07/22 00:50:49;;;;;;;1.93;1.67;;;;;;;;;;5092380;28;20266;-81
2023/07/22 00:53:18;;;;;;;3.27;1.73;;;;;;;;;;5091641;28;20198;-81
2023/07/22 00:55:47;;;;;;;0.30;0.30;;;;;;;;;;5092277;28;20193;-81
2023/07/22 00:58:15;;;;;;;1.63;1.53;;;;;;;;;;5092513;28;20201;-81
2023/07/22 01:00:44;;;;;;;3.07;2.13;;;;;;;;;;5091575;28;20232;-81
2023/07/22 01:03:13;;;;;;;1.17;1.17;;;;;;;;;;5091706;28;20236;-81
2023/07/22 01:05:42;;;;;;;2.40;2.20;;;;;;;;;;5091781;28;20205;-81
2023/07/22 01:08:11;;;;;;;2.67;1.53;;;;;;;;;;5092004;28;20216;-81
2023/07/22 01:10:42;;;;;;;7.93;4.97;;;;;;;;;;5091456;28;20193;-81
2023/07/22 01:13:10;;;;;;;4.43;2.90;;;;;;;;;;5091983;28;20204;-81
2023/07/22 01:15:39;;;;;;;9.73;4.60;;;;;;;;;;5091717;28;20189;-81
2023/07/22 01:18:08;;;;;;;5.00;2.80;;;;;;;;;;5091830;28;20203;-81
2023/07/22 01:20:38;;;;;;;8.97;6.07;;;;;;;;;;5092079;28;20246;-81
2023/07/22 01:23:08;;;;;;;9.37;5.93;;;;;;;;;;5092192;28;20274;-81
2023/07/22 01:25:37;;;;;;;8.37;4.40;;;;;;;;;;5092054;28;20232;-81
2023/07/22 01:28:10;;;;;;;5.80;4.10;;;;;;;;;;5090882;28;20221;-81
2023/07/22 01:30:39;;;;;;;2.47;2.27;;;;;;;;;;5091584;28;20201;-81
2023/07/22 01:33:08;;;;;;;7.77;5.23;;;;;;;;;;5091950;28;20205;-81
2023/07/22 01:35:36;;;;;;;5.13;4.07;;;;;;;;;;5091493;28;20204;-81
2023/07/22 01:38:05;;;;;;;1.80;1.23;;;;;;;;;;5091471;28;20200;-81
2023/07/22 01:40:35;;;;;;;2.00;1.90;;;;;;;;;;5091821;28;20201;-81
2023/07/22 01:43:03;;;;;;;7.67;4.37;;;;;;;;;;5091616;28;20203;-81
2023/07/22 01:45:32;;;;;;;7.60;4.83;;;;;;;;;;5091378;28;20214;-81
2023/07/22 01:48:00;;;;;;;6.70;4.73;;;;;;;;;;5091433;28;20206;-81
2023/07/22 01:50:29;;;;;;;10.33;7.53;;;;;;;;;;5091685;28;20235;-81
2023/07/22 01:52:57;;;;;;;9.60;6.23;;;;;;;;;;5090981;28;20219;-81
2023/07/22 01:55:25;;;;;;;6.50;4.70;;;;;;;;;;5091756;28;20205;-81
2023/07/22 01:57:56;;;;;;;9.13;6.73;;;;;;;;;;5091421;28;20208;-81
2023/07/22 02:00:24;;;;;;;8.57;3.63;;;;;;;;;;5094211;28;20231;-81
2023/07/22 02:02:52;;;;;;;1.13;1.10;;;;;;;;;;5095189;28;20208;-81
2023/07/22 02:05:21;;;;;;;4.23;3.90;;;;;;;;;;5095420;28;20225;-81
2023/07/22 02:07:50;;;;;;;10.80;6.07;;;;;;;;;;5095585;28;20204;-81
2023/07/22 02:10:18;;;;;;;10.57;5.97;;;;;;;;;;5095241;28;20192;-81
2023/07/22 02:12:47;;;;;;;4.67;3.73;;;;;;;;;;5095324;28;20205;-80
2023/07/22 02:15:17;;;;;;;3.00;2.70;;;;;;;;;;5095203;28;20208;-81
2023/07/22 02:17:45;;;;;;;2.43;1.40;;;;;;;;;;5095177;28;20201;-81
2023/07/22 02:20:14;;;;;;;1.30;1.23;;;;;;;;;;5094738;28;20253;-83
2023/07/22 02:22:43;;;;;;;0.77;0.77;;;;;;;;;;5095375;28;20201;-83
2023/07/22 02:25:11;;;;;;;4.27;3.20;;;;;;;;;;5094653;28;20230;-83
2023/07/22 02:27:41;;;;;;;3.97;2.20;;;;;;;;;;5094810;28;20217;-83
2023/07/22 02:30:11;;;;;;;1.10;1.10;;;;;;;;;;5094952;28;20200;-83
2023/07/22 02:32:41;;;;;;;1.00;1.00;;;;;;;;;;5095707;28;20203;-83
2023/07/22 02:35:10;;;;;;;3.20;2.10;;;;;;;;;;5095121;28;20204;-83
2023/07/22 02:37:40;;;;;;;2.40;1.23;;;;;;;;;;5094079;28;20327;-83
2023/07/22 02:40:10;;;;;;;1.17;1.17;;;;;;;;;;5094724;28;20208;-83
2023/07/22 02:42:39;;;;;;;1.17;1.17;;;;;;;;;;5095123;28;20207;-83
2023/07/22 02:45:09;;;;;;;1.63;1.13;;;;;;;;;;5094355;28;20315;-83
2023/07/22 02:47:37;;;;;;;2.23;1.47;;;;;;;;;;5094265;28;20215;-83
2023/07/22 02:50:08;;;;;;;11.13;1.00;;;;;;;;;;5094808;28;20197;-83
2023/07/22 02:52:37;;;;;;;0.60;0.60;;;;;;;;;;5095107;28;20210;-83
2023/07/22 02:55:07;;;;;;;1.33;1.33;;;;;;;;;;5094191;28;20246;-84
2023/07/22 02:57:36;;;;;;;1.37;1.20;;;;;;;;;;5094735;28;20205;-83
2023/07/22 03:00:07;;;;;;;1.40;1.27;;;;;;;;;;5094297;28;20249;-83
2023/07/22 03:02:36;;;;;;;0.63;0.63;;;;;;;;;;5094393;28;20297;-83
2023/07/22 03:05:07;;;;;;;2.30;1.97;;;;;;;;;;5094011;28;20200;-83
2023/07/22 03:07:38;;;;;;;5.40;1.20;;;;;;;;;;5094737;28;20202;-83
2023/07/22 03:10:07;;;;;;;0.60;0.60;;;;;;;;;;5093798;28;20247;-83
2023/07/22 03:12:36;;;;;;;0.70;0.70;;;;;;;;;;5093520;28;20201;-84
2023/07/22 03:15:08;;;;;;;2.70;2.43;;;;;;;;;;5093701;28;20211;-84
2023/07/22 03:17:36;;;;;;;1.63;1.53;;;;;;;;;;5094060;28;20204;-84
2023/07/22 03:20:10;;;;;;;1.37;1.23;;;;;;;;;;5093755;28;20197;-83
2023/07/22 03:22:40;;;;;;;2.30;1.93;;;;;;;;;;5093753;28;20192;-84
2023/07/22 03:25:10;;;;;;;2.37;1.10;;;;;;;;;;5094135;28;20202;-84
2023/07/22 03:27:38;;;;;;;2.40;1.50;;;;;;;;;;5093924;28;20226;-83
2023/07/22 03:30:08;;;;;;;0.83;0.83;;;;;;;;;;5093608;28;20209;-84
2023/07/22 03:32:36;;;;;;;2.73;1.10;;;;;;;;;;5093956;28;20204;-83
2023/07/22 03:35:05;;;;;;;1.50;1.20;;;;;;;;;;5094030;28;20204;-84
2023/07/22 03:37:35;;;;;;;1.73;1.63;;;;;;;;;;5093287;28;20198;-84
2023/07/22 03:40:10;;;;;;;1.20;1.13;;;;;;;;;;5093430;28;20287;-84
2023/07/22 03:42:39;;;;;;;2.20;1.47;;;;;;;;;;5093610;28;20200;-84
2023/07/22 03:45:09;;;;;;;0.93;0.93;;;;;;;;;;5093874;28;20206;-84
2023/07/22 03:47:38;;;;;;;0.80;0.80;;;;;;;;;;5092660;28;20221;-84
2023/07/22 03:50:07;;;;;;;2.10;2.00;;;;;;;;;;5093494;28;20197;-84
2023/07/22 03:52:36;;;;;;;0.40;0.40;;;;;;;;;;5094028;28;20230;-84
2023/07/22 03:55:06;;;;;;;0.60;0.60;;;;;;;;;;5093123;28;20247;-84
2023/07/22 03:57:34;;;;;;;5.43;2.97;;;;;;;;;;5092772;28;20189;-84
2023/07/22 04:00:05;;;;;;;2.13;1.67;;;;;;;;;;5093109;28;20239;-83
2023/07/22 04:02:33;;;;;;;3.87;1.87;;;;;;;;;;5093300;28;20193;-84
2023/07/22 04:05:02;;;;;;;1.60;1.37;;;;;;;;;;5092713;28;20229;-84
2023/07/22 04:07:31;;;;;;;2.30;2.10;;;;;;;;;;5093460;28;20216;-84
2023/07/22 04:09:59;;;;;;;3.30;2.40;;;;;;;;;;5092985;28;20197;-84
2023/07/22 04:12:29;;;;;;;4.60;2.67;;;;;;;;;;5092696;28;20197;-84
2023/07/22 04:14:58;;;;;;;1.33;1.23;;;;;;;;;;5092322;28;20207;-81
2023/07/22 04:17:27;;;;;;;2.90;2.00;;;;;;;;;;5092763;28;20291;-81
2023/07/22 04:19:55;;;;;;;2.87;2.10;;;;;;;;;;5092674;28;20232;-81
2023/07/22 04:22:24;;;;;;;1.07;1.07;;;;;;;;;;5091792;28;20243;-81
2023/07/22 04:24:52;;;;;;;0.57;0.57;;;;;;;;;;5092679;28;20201;-81
2023/07/22 04:27:21;;;;;;;1.07;1.07;;;;;;;;;;5092609;28;20225;-81
2023/07/22 04:29:51;;;;;;;0.50;0.50;;;;;;;;;;5092403;28;20215;-81
2023/07/22 04:32:19;;;;;;;2.10;1.70;;;;;;;;;;5092095;28;20193;-81
2023/07/22 04:34:50;;;;;;;2.47;0.97;;;;;;;;;;5092184;28;20197;-81
2023/07/22 04:37:18;;;;;;;0.90;0.90;;;;;;;;;;5092425;28;20307;-81
2023/07/22 04:39:48;;;;;;;8.33;1.23;;;;;;;;;;5092075;28;20208;-81
2023/07/22 04:42:17;;;;;;;3.30;1.83;;;;;;;;;;5092834;28;20285;-81
2023/07/22 04:44:45;;;;;;;4.47;2.60;;;;;;;;;;5092262;28;20198;-82
2023/07/22 04:47:17;;;;;;;1.57;1.43;;;;;;;;;;5091943;28;20221;-82
2023/07/22 04:49:46;;;;;;;2.30;2.03;;;;;;;;;;5092018;28;20203;-81
2023/07/22 04:52:15;;;;;;;0.70;0.70;;;;;;;;;;5092250;28;20190;-81
2023/07/22 04:54:43;;;;;;;0.40;0.40;;;;;;;;;;5092122;28;20254;-81
2023/07/22 04:57:11;;;;;;;4.73;2.00;;;;;;;;;;5091564;28;20224;-81
2023/07/22 04:59:40;;;;;;;0.50;0.50;;;;;;;;;;5092405;28;20212;-82
2023/07/22 05:02:08;;;;;;;0.70;0.70;;;;;;;;;;5091778;28;20247;-81
2023/07/22 05:04:38;;;;;;;0.83;0.83;;;;;;;;;;5091948;28;20197;-82
2023/07/22 05:07:07;;;;;;;1.17;1.17;;;;;;;;;;5091683;28;20217;-82
2023/07/22 05:09:35;;;;;;;0.73;0.73;;;;;;;;;;5092155;28;20204;-81
2023/07/22 05:12:04;;;;;;;0.90;0.67;;;;;;;;;;5091751;28;20189;-81
2023/07/22 05:14:32;;;;;;;0.30;0.30;;;;;;;;;;5091598;28;20220;-82
2023/07/22 05:17:01;;;;;;;0.50;0.50;;;;;;;;;;5091943;28;20198;-81
2023/07/22 05:19:29;;;;;;;1.47;1.37;;;;;;;;;;5091975;28;20208;-82
2023/07/22 05:21:59;;;;;;;3.37;1.23;;;;;;;;;;5091693;28;20266;-81
2023/07/22 05:24:28;;;;;;;7.03;1.43;;;;;;;;;;5091158;28;20205;-81
2023/07/22 05:26:56;;;;;;;0.40;0.40;;;;;;;;;;5091658;28;20225;-81
2023/07/22 05:29:36;;;;;;;2.83;2.00;;;;;;;;;;5092292;28;20193;-82
2023/07/22 05:32:05;;;;;;;4.17;2.37;;;;;;;;;;5091702;28;20201;-83
2023/07/22 05:34:39;;;;;;;3.10;1.53;;;;;;;;;;5094471;28;20204;-84
2023/07/22 05:37:09;;;;;;;3.70;2.23;;;;;;;;;;5095505;28;20204;-84
2023/07/22 05:39:37;;;;;;;6.27;3.60;;;;;;;;;;5096236;28;20224;-84
2023/07/22 05:42:06;;;;;;;2.57;2.37;;;;;;;;;;5095543;28;20275;-84
2023/07/22 05:44:35;;;;;;;3.57;1.73;;;;;;;;;;5095950;28;20255;-83
2023/07/22 05:47:03;;;;;;;2.83;2.63;;;;;;;;;;5095604;28;20262;-84
2023/07/22 05:49:32;;;;;;;0.97;0.97;;;;;;;;;;5095442;28;20204;-84
2023/07/22 05:52:00;;;;;;;4.53;1.53;;;;;;;;;;5095631;28;20195;-84
2023/07/22 05:54:32;;;;;;;3.60;1.27;;;;;;;;;;5095547;28;20244;-81
2023/07/22 05:57:01;;;;;;;0.40;0.40;;;;;;;;;;5095669;28;20226;-81
2023/07/22 05:59:29;;;;;;;1.07;0.83;;;;;;;;;;5095322;28;20201;-81
2023/07/22 06:01:58;;;;;;;2.50;2.30;;;;;;;;;;5095296;28;20237;-81
2023/07/22 06:04:27;;;;;;;1.50;1.40;;;;;;;;;;5095705;28;20242;-81
2023/07/22 06:06:55;;;;;;;3.27;2.40;;;;;;;;;;5094680;28;20266;-82
2023/07/22 06:09:24;;;;;;;2.63;1.90;;;;;;;;;;5095922;28;20205;-82
2023/07/22 06:11:54;;;;;;;3.47;2.80;;;;;;;;;;5095328;28;20292;-82
2023/07/22 06:14:24;;;;;;;6.27;3.30;;;;;;;;;;5095281;28;20204;-81
2023/07/22 06:16:52;;;;;;;1.33;1.27;;;;;;;;;;5094771;28;20193;-82
2023/07/22 06:19:23;;;;;;;4.20;2.50;;;;;;;;;;5095272;28;20295;-82
2023/07/22 06:21:51;;;;;;;2.37;1.40;;;;;;;;;;5095116;28;20208;-81
2023/07/22 06:24:22;;;;;;;3.93;3.33;;;;;;;;;;5095038;28;20437;-81
2023/07/22 06:26:50;;;;;;;0.50;0.50;;;;;;;;;;5094842;28;20197;-81
2023/07/22 06:29:20;;;;;;;5.30;2.90;;;;;;;;;;5094999;28;20220;-82
2023/07/22 06:31:49;;;;;;;1.13;1.13;;;;;;;;;;5094904;28;20242;-81
2023/07/22 06:34:17;;;;;;;3.77;3.23;;;;;;;;;;5094766;28;20197;-81
2023/07/22 06:36:46;;;;;;;6.90;4.13;;;;;;;;;;5094984;28;20201;-81
2023/07/22 06:39:14;;;;;;;5.33;3.37;;;;;;;;;;5094838;28;20201;-81
2023/07/22 06:41:43;;;;;;;8.17;6.10;;;;;;;;;;5094341;28;20201;-81
2023/07/22 06:44:11;;;;;;;6.97;4.83;;;;;;;;;;5094597;28;20205;-82
2023/07/22 06:46:41;;;;;;;5.97;4.63;;;;;;;;;;5094683;28;20211;-81
2023/07/22 06:49:10;;;;;;;7.30;4.43;;;;;;;;;;5093955;28;20225;-81
2023/07/22 06:51:38;;;;;;;7.60;4.33;;;;;;;;;;5094326;28;20282;-81
2023/07/22 06:54:07;;;;;;;8.67;5.03;;;;;;;;;;5094519;28;20212;-80
2023/07/22 06:56:36;;;;;;;5.73;4.80;;;;;;;;;;5094304;28;20239;-81
2023/07/22 06:59:04;;;;;;;2.17;1.83;;;;;;;;;;5093829;28;20194;-81
2023/07/22 07:01:32;;;;;;;2.27;1.63;;;;;;;;;;5093914;28;20230;-82
2023/07/22 07:04:03;;;;;;;0.70;0.70;;;;;;;;;;5094533;28;20210;-81
2023/07/22 07:06:31;;;;;;;0.97;0.97;;;;;;;;;;5094135;28;20239;-82
2023/07/22 07:09:01;;;;;;;0.40;0.40;;;;;;;;;;5093829;28;20210;-82
2023/07/22 07:11:30;;;;;;;0.40;0.40;;;;;;;;;;5094130;28;20206;-82
2023/07/22 07:13:58;;;;;;;0.40;0.40;;;;;;;;;;5094397;28;20201;-82
2023/07/22 07:16:28;;;;;;;2.73;1.83;;;;;;;;;;5094051;28;20210;-81
2023/07/22 07:18:57;;;;;;;9.87;5.00;;;;;;;;;;5093901;28;20341;-81
2023/07/22 07:21:27;;;;;;;3.90;2.20;;;;;;;;;;5093883;28;20205;-82
2023/07/22 07:23:56;;;;;;;1.50;1.50;;;;;;;;;;5093621;28;20198;-82
2023/07/22 07:26:24;;;;;;;0.50;0.50;;;;;;;;;;5093209;28;20240;-81
2023/07/22 07:28:55;;;;;;;0.30;0.30;;;;;;;;;;5093744;28;20221;-81
2023/07/22 07:31:23;;;;;;;6.83;4.10;;;;;;;;;;5093876;28;20216;-81
2023/07/22 07:33:52;;;;;;;2.53;2.30;;;;;;;;;;5093852;28;20201;-81
2023/07/22 07:36:20;;;;;;;4.00;2.27;;;;;;;;;;5093565;28;20193;-81
2023/07/22 07:38:50;;;;;;;0.30;0.30;;;;;;;;;;5093497;28;20288;-81
2023/07/22 07:41:19;;;;;;;0.40;0.40;;;;;;;;;;5093760;28;20206;-81
2023/07/22 07:43:48;;;;;;;0.80;0.80;;;;;;;;;;5093217;28;20197;-82
2023/07/22 07:46:18;;;;;;;0.47;0.47;;;;;;;;;;5093222;28;20205;-82
2023/07/22 07:48:47;;;;;;;14.03;8.53;;;;;;;;;;5092813;28;20221;-82
2023/07/22 07:51:16;;;;;;;10.23;6.10;;;;;;;;;;5093046;28;20201;-81
2023/07/22 07:53:46;;;;;;;1.10;1.07;;;;;;;;;;5093308;28;20263;-82
2023/07/22 07:56:17;;;;;;;9.33;6.10;;;;;;;;;;5093243;28;20211;-82
2023/07/22 07:58:46;;;;;;;2.47;2.27;;;;;;;;;;5092791;28;20207;-81
2023/07/22 08:01:15;;;;;;;11.80;7.60;;;;;;;;;;5092412;28;20231;-81
2023/07/22 08:03:44;;;;;;;4.07;2.33;;;;;;;;;;5092987;28;20205;-81
2023/07/22 08:06:12;;;;;;;6.00;3.53;;;;;;;;;;5092801;28;20219;-81
2023/07/22 08:08:43;;;;;;;2.00;1.90;;;;;;;;;;5092575;28;20282;-82
2023/07/22 08:11:13;;;;;;;1.83;1.67;;;;;;;;;;5093039;28;20206;-81
2023/07/22 08:13:43;;;;;;;1.53;1.47;;;;;;;;;;5093071;28;20209;-82
2023/07/22 08:16:13;;;;;;;2.17;1.83;;;;;;;;;;5092810;28;20255;-81
2023/07/22 08:18:42;;;;;;;2.97;2.03;;;;;;;;;;5092451;28;20202;-81
2023/07/22 08:21:10;;;;;;;3.77;2.00;;;;;;;;;;5093156;28;20209;-82
2023/07/22 08:23:39;;;;;;;1.70;1.60;;;;;;;;;;5093025;28;20200;-82
2023/07/22 08:26:07;;;;;;;1.60;1.50;;;;;;;;;;5092460;28;20201;-82
2023/07/22 08:28:36;;;;;;;1.10;1.00;;;;;;;;;;5092677;28;20339;-82
2023/07/22 08:31:06;;;;;;;1.03;0.93;;;;;;;;;;5092933;28;20206;-81
2023/07/22 08:33:35;;;;;;;2.37;1.83;;;;;;;;;;5092424;28;20249;-82
2023/07/22 08:36:09;;;;;;;2.40;2.20;;;;;;;;;;5092413;28;20210;-82
2023/07/22 08:38:38;;;;;;;0.70;0.70;;;;;;;;;;5093112;28;20220;-81
2023/07/22 08:41:06;;;;;;;4.27;1.17;;;;;;;;;;5092703;28;20252;-83
2023/07/22 08:43:36;;;;;;;1.67;1.57;;;;;;;;;;5092132;28;20223;-83
2023/07/22 08:46:07;;;;;;;3.07;2.53;;;;;;;;;;5092315;28;20209;-83
2023/07/22 08:48:36;;;;;;;1.53;1.40;;;;;;;;;;5092480;28;20220;-83
2023/07/22 08:51:06;;;;;;;2.50;1.67;;;;;;;;;;5092794;28;20265;-84
2023/07/22 08:53:34;;;;;;;1.87;1.77;;;;;;;;;;5091933;28;20257;-83
2023/07/22 08:56:03;;;;;;;2.27;1.80;;;;;;;;;;5092094;28;20397;-83
2023/07/22 08:58:31;;;;;;;4.30;2.00;;;;;;;;;;5092152;28;20214;-83
2023/07/22 09:01:00;;;;;;;1.20;1.10;;;;;;;;;;5091975;28;20241;-83
2023/07/22 09:03:30;;;;;;;2.20;1.87;;;;;;;;;;5092212;28;20299;-83
2023/07/22 09:05:59;;;;;;;3.37;2.90;;;;;;;;;;5092577;28;20195;-83
2023/07/22 09:08:29;;;;;;;1.43;1.33;;;;;;;;;;5090722;28;20213;-84
2023/07/22 09:10:58;;;;;;;10.67;2.00;;;;;;;;;;5092174;28;20206;-84
2023/07/22 09:13:27;;;;;;;1.30;1.23;;;;;;;;;;5092446;28;20207;-83
2023/07/22 09:15:58;;;;;;;2.90;1.57;;;;;;;;;;5092625;28;20216;-83
2023/07/22 09:18:27;;;;;;;1.20;1.10;;;;;;;;;;5091420;28;20203;-83
2023/07/22 09:20:56;;;;;;;7.37;2.60;;;;;;;;;;5091807;28;20203;-83
2023/07/22 09:23:33;;;;;;;2.73;1.87;;;;;;;;;;5092123;28;20207;-82
2023/07/22 09:26:11;;;;;;;4.57;2.13;;;;;;;;;;5091705;28;20200;-82
2023/07/22 09:28:50;;;;;;;2.87;2.67;;;;;;;;;;5091624;28;20242;-82
2023/07/22 09:31:18;;;;;;;2.90;1.57;;;;;;;;;;5091597;28;20199;-82
2023/07/22 09:33:47;;;;;;;3.47;1.93;;;;;;;;;;5091963;28;20200;-82
2023/07/22 09:36:17;;;;;;;4.00;2.67;;;;;;;;;;5091551;28;20255;-82
2023/07/22 09:38:46;;;;;;;3.17;2.60;;;;;;;;;;5091636;28;20192;-82
2023/07/22 09:41:20;;;;;;;1.93;1.00;;;;;;;;;;5091676;28;20208;-82
2023/07/22 09:43:49;;;;;;;5.27;2.43;;;;;;;;;;5091439;28;20187;-82
2023/07/22 09:46:17;;;;;;;3.73;1.17;;;;;;;;;;5091211;28;20203;-82
2023/07/22 09:49:03;;;;;;;2.27;1.67;;;;;;;;;;5091289;28;20240;-82
2023/07/22 09:51:36;;;;;;;1.77;1.67;;;;;;;;;;5091662;28;20199;-82
2023/07/22 09:54:24;;;;;;;3.80;1.60;;;;;;;;;;5091488;28;20205;-82
2023/07/22 09:56:52;;;;;;;1.47;1.37;;;;;;;;;;5091470;28;20204;-82
2023/07/22 09:59:23;;;;;;;2.40;1.83;;;;;;;;;;5091771;28;20204;-82
2023/07/22 10:01:52;;;;;;;1.73;1.00;;;;;;;;;;5091083;28;20279;-81
2023/07/22 10:04:22;;;;;;;1.40;1.27;;;;;;;;;;5091471;28;20647;-82
2023/07/22 10:06:52;;;;;;;2.00;0.83;;;;;;;;;;5091476;28;20200;-82
2023/07/22 10:09:23;;;;;;;9.43;1.20;;;;;;;;;;5091665;28;20225;-82
2023/07/22 10:11:51;;;;;;;1.27;1.17;;;;;;;;;;5090633;28;20201;-82
2023/07/22 10:14:20;;;;;;;1.07;1.07;;;;;;;;;;5091730;28;20290;-82
2023/07/22 10:16:48;;;;;;;1.07;1.00;;;;;;;;;;5091438;28;20207;-82
2023/07/22 10:19:17;;;;;;;1.87;1.03;;;;;;;;;;5091422;28;20190;-81
2023/07/22 10:21:46;;;;;;;0.90;0.90;;;;;;;;;;5094626;28;20205;-82
2023/07/22 10:24:16;;;;;;;2.03;1.20;;;;;;;;;;5095459;28;20209;-82
2023/07/22 10:26:45;;;;;;;4.30;1.40;;;;;;;;;;5094810;28;20230;-82
2023/07/22 10:29:16;;;;;;;2.40;1.27;;;;;;;;;;5094442;28;20321;-82
2023/07/22 10:31:44;;;;;;;0.83;0.83;;;;;;;;;;5094951;28;20223;-81
2023/07/22 10:34:12;;;;;;;2.83;1.80;;;;;;;;;;5095227;28;20195;-82
2023/07/22 10:36:41;;;;;;;3.47;1.30;;;;;;;;;;5094528;28;20208;-81
2023/07/22 10:39:12;;;;;;;6.60;2.10;;;;;;;;;;5094802;28;20202;-81
2023/07/22 10:41:42;;;;;;;0.80;0.80;;;;;;;;;;5095238;28;20213;-82
2023/07/22 10:44:12;;;;;;;4.27;0.97;;;;;;;;;;5094358;28;20203;-82
2023/07/22 10:46:43;;;;;;;1.23;1.00;;;;;;;;;;5094160;28;20202;-82
2023/07/22 10:49:13;;;;;;;1.20;0.83;;;;;;;;;;5095059;28;20205;-82
2023/07/22 10:51:41;;;;;;;1.80;1.37;;;;;;;;;;5094012;28;20223;-83
2023/07/22 10:54:13;;;;;;;1.13;0.97;;;;;;;;;;5094047;28;20228;-82
2023/07/22 10:56:44;;;;;;;5.80;1.07;;;;;;;;;;5091689;28;20202;-83
2023/07/22 10:59:12;;;;;;;5.70;1.53;;;;;;;;;;5094463;28;20219;-81
2023/07/22 11:01:41;;;;;;;1.13;0.90;;;;;;;;;;5094533;28;20240;-81
2023/07/22 11:04:10;;;;;;;2.00;1.13;;;;;;;;;;5094190;28;20204;-82
2023/07/22 11:06:40;;;;;;;2.17;1.53;;;;;;;;;;5094691;28;20201;-82
2023/07/22 11:09:08;;;;;;;2.43;0.97;;;;;;;;;;5094279;28;20201;-81
2023/07/22 11:11:38;;;;;;;2.77;1.90;;;;;;;;;;5094046;28;20225;-82
2023/07/22 11:14:18;;;;;;;2.00;1.90;;;;;;;;;;5094125;28;20208;-82
2023/07/22 11:16:48;;;;;;;1.27;1.10;;;;;;;;;;5094199;28;20201;-82
2023/07/22 11:19:17;;;;;;;0.87;0.87;;;;;;;;;;5093915;28;20270;-81
2023/07/22 11:21:46;;;;;;;2.27;2.07;;;;;;;;;;5093810;28;20190;-81
2023/07/22 11:24:15;;;;;;;5.00;1.27;;;;;;;;;;5094188;28;20203;-84
2023/07/22 11:26:43;;;;;;;0.90;0.73;;;;;;;;;;5094098;28;20211;-83
2023/07/22 11:29:14;;;;;;;4.63;1.90;;;;;;;;;;5093990;28;20222;-84
2023/07/22 11:31:45;;;;;;;7.37;1.67;;;;;;;;;;5092597;28;20223;-84
2023/07/22 11:34:14;;;;;;;1.23;1.10;;;;;;;;;;5093766;28;20296;-84
2023/07/22 11:36:43;;;;;;;2.23;1.37;;;;;;;;;;5093880;28;20244;-84
2023/07/22 11:39:13;;;;;;;1.87;1.27;;;;;;;;;;5093286;28;20249;-84
2023/07/22 11:41:42;;;;;;;2.73;1.83;;;;;;;;;;5093591;28;20209;-84
2023/07/22 11:44:13;;;;;;;2.67;1.70;;;;;;;;;;5093297;28;20277;-84
2023/07/22 11:46:53;;;;;;;9.60;3.03;;;;;;;;;;5093588;28;20224;-83
2023/07/22 11:49:25;;;;;;;3.23;2.07;;;;;;;;;;5093490;28;20212;-84
2023/07/22 11:51:56;;;;;;;2.83;1.73;;;;;;;;;;5093443;28;20232;-84
2023/07/22 11:54:24;;;;;;;2.33;2.10;;;;;;;;;;5093575;28;20197;-84
2023/07/22 11:56:53;;;;;;;3.07;2.20;;;;;;;;;;5092790;28;20201;-84
2023/07/22 11:59:34;;;;;;;2.83;2.60;;;;;;;;;;5093282;28;20205;-84
2023/07/22 12:02:05;;;;;;;3.30;1.90;;;;;;;;;;5092935;28;20236;-84
2023/07/22 12:04:34;;;;;;;6.17;1.53;;;;;;;;;;5093139;28;20207;-84
2023/07/22 12:07:04;;;;;;;2.10;1.73;;;;;;;;;;5092775;28;20269;-83
2023/07/22 12:09:33;;;;;;;3.87;1.60;;;;;;;;;;5093172;28;20215;-84
2023/07/22 12:12:02;;;;;;;3.03;2.70;;;;;;;;;;5092990;28;20213;-84
2023/07/22 12:14:36;;;;;;;4.57;2.20;;;;;;;;;;5092769;28;20196;-84
2023/07/22 12:17:09;;;;;;;4.30;1.80;;;;;;;;;;5092910;28;20197;-84
2023/07/22 12:19:38;;;;;;;3.07;1.90;;;;;;;;;;5093207;28;20200;-84
2023/07/22 12:22:06;;;;;;;2.10;1.90;;;;;;;;;;5092121;28;20194;-84
2023/07/22 12:24:35;;;;;;;3.47;2.77;;;;;;;;;;5092627;28;20211;-84
2023/07/22 12:27:03;;;;;;;1.27;1.10;;;;;;;;;;5092535;28;20238;-84
2023/07/22 12:29:32;;;;;;;1.60;1.50;;;;;;;;;;5092487;28;20206;-84
2023/07/22 12:32:00;;;;;;;1.40;1.30;;;;;;;;;;5092218;28;20237;-84
2023/07/22 12:34:30;;;;;;;4.10;2.17;;;;;;;;;;5092555;28;20203;-83
2023/07/22 12:36:59;;;;;;;5.67;1.70;;;;;;;;;;5092503;28;20215;-84
2023/07/22 12:39:28;;;;;;;6.93;3.43;;;;;;;;;;5092691;28;20212;-84
2023/07/22 12:41:58;;;;;;;3.83;2.57;;;;;;;;;;5092480;28;20294;-84
2023/07/22 12:44:26;;;;;;;2.00;1.80;;;;;;;;;;5092286;28;20207;-84
2023/07/22 12:46:54;;;;;;;4.53;1.67;;;;;;;;;;5092422;28;20260;-84
2023/07/22 12:49:26;;;;;;;2.87;1.90;;;;;;;;;;5092462;28;20207;-84
2023/07/22 12:52:03;;;;;;;3.13;2.50;;;;;;;;;;5092232;28;20271;-84
2023/07/22 12:54:31;;;;;;;4.47;2.70;;;;;;;;;;5092358;28;20193;-84
2023/07/22 12:57:00;;;;;;;3.67;2.00;;;;;;;;;;5092014;28;20203;-84
2023/07/22 12:59:28;;;;;;;0.83;0.83;;;;;;;;;;5092189;28;20253;-84
2023/07/22 13:01:57;;;;;;;2.33;1.77;;;;;;;;;;5092085;28;20240;-84
2023/07/22 13:04:26;;;;;;;1.90;1.33;;;;;;;;;;5092138;28;20203;-84
2023/07/22 13:06:56;;;;;;;4.90;3.17;;;;;;;;;;5091507;28;20202;-84
2023/07/22 13:09:24;;;;;;;2.73;1.73;;;;;;;;;;5092179;28;20217;-84
2023/07/22 13:11:53;;;;;;;2.20;1.43;;;;;;;;;;5091824;28;20221;-84
2023/07/22 13:14:21;;;;;;;4.30;1.97;;;;;;;;;;5091775;28;20211;-84
2023/07/22 13:16:50;;;;;;;9.40;2.00;;;;;;;;;;5091993;28;20202;-84
2023/07/22 13:19:18;;;;;;;0.80;0.73;;;;;;;;;;5091898;28;20199;-84
2023/07/22 13:21:47;;;;;;;2.33;1.80;;;;;;;;;;5092000;28;20221;-82
2023/07/22 13:24:16;;;;;;;1.40;1.30;;;;;;;;;;5091244;28;20192;-82
2023/07/22 13:26:45;;;;;;;3.57;1.87;;;;;;;;;;5092375;28;20197;-82
2023/07/22 13:29:13;;;;;;;4.17;1.87;;;;;;;;;;5091605;28;20226;-82
2023/07/22 13:31:42;;;;;;;4.17;1.93;;;;;;;;;;5091841;28;20220;-82
2023/07/22 13:34:11;;;;;;;5.30;2.00;;;;;;;;;;5091857;28;20207;-82
2023/07/22 13:36:39;;;;;;;6.53;2.50;;;;;;;;;;5091713;28;20198;-82
2023/07/22 13:39:08;;;;;;;5.03;2.50;;;;;;;;;;5091429;28;20189;-82
2023/07/22 13:41:37;;;;;;;2.67;1.63;;;;;;;;;;5091784;28;20209;-82
2023/07/22 13:44:06;;;;;;;1.73;1.53;;;;;;;;;;5092201;28;20238;-82
2023/07/22 13:46:34;;;;;;;2.20;1.70;;;;;;;;;;5091627;28;20202;-81
2023/07/22 13:49:03;;;;;;;2.17;1.30;;;;;;;;;;5091291;28;20236;-82
2023/07/22 13:51:31;;;;;;;3.87;1.97;;;;;;;;;;5091445;28;20221;-82
2023/07/22 13:54:00;;;;;;;2.97;2.67;;;;;;;;;;5091822;28;20201;-82
2023/07/22 13:56:28;;;;;;;4.70;2.13;;;;;;;;;;5095151;28;20202;-82
2023/07/22 13:59:00;;;;;;;3.63;2.70;;;;;;;;;;5095097;28;20204;-82
2023/07/22 14:01:29;;;;;;;0.60;0.60;;;;;;;;;;5095414;28;20236;-82
2023/07/22 14:03:58;;;;;;;1.47;1.33;;;;;;;;;;5095707;28;20200;-82
2023/07/22 14:06:27;;;;;;;1.80;1.40;;;;;;;;;;5095361;28;20208;-82
2023/07/22 14:08:55;;;;;;;1.03;1.00;;;;;;;;;;5095003;28;20202;-82
2023/07/22 14:11:24;;;;;;;0.93;0.93;;;;;;;;;;5095384;28;20226;-82
2023/07/22 14:13:54;;;;;;;3.67;1.83;;;;;;;;;;5095610;28;20280;-82
2023/07/22 14:16:24;;;;;;;2.53;2.00;;;;;;;;;;5095019;28;20204;-82
2023/07/22 14:18:52;;;;;;;1.30;1.20;;;;;;;;;;5095449;28;20200;-82
2023/07/22 14:21:21;;;;;;;0.77;0.77;;;;;;;;;;5095249;28;20207;-82
2023/07/22 14:23:50;;;;;;;2.50;1.93;;;;;;;;;;5094866;28;20196;-82
2023/07/22 14:26:20;;;;;;;6.10;2.80;;;;;;;;;;5094740;28;20197;-82
2023/07/22 14:28:48;;;;;;;2.57;1.50;;;;;;;;;;5095039;28;20321;-82
2023/07/22 14:31:17;;;;;;;1.37;1.27;;;;;;;;;;5094501;28;20203;-82
2023/07/22 14:33:47;;;;;;;2.03;1.63;;;;;;;;;;5094307;28;20187;-82
2023/07/22 14:36:15;;;;;;;5.13;2.57;;;;;;;;;;5095031;28;20222;-82
2023/07/22 14:38:44;;;;;;;3.07;1.57;;;;;;;;;;5094614;28;20292;-82
2023/07/22 14:41:12;;;;;;;3.70;2.20;;;;;;;;;;5094731;28;20204;-82
2023/07/22 14:43:41;;;;;;;1.63;1.43;;;;;;;;;;5094953;28;20253;-82
2023/07/22 14:46:09;;;;;;;3.57;1.60;;;;;;;;;;5094953;28;20238;-82
2023/07/22 14:48:38;;;;;;;3.37;1.50;;;;;;;;;;5094632;28;20203;-82
2023/07/22 14:51:08;;;;;;;3.23;1.73;;;;;;;;;;5094171;28;20200;-82
2023/07/22 14:53:36;;;;;;;0.73;0.73;;;;;;;;;;5094607;28;20220;-82
2023/07/22 14:56:06;;;;;;;1.60;1.50;;;;;;;;;;5094586;28;20208;-82